sensor_id;sensor_type;location;lat;lon;timestamp;temperature;humidity
17341;DHT22;8788;49.930;8.660;2022-12-18T04:04:47;-5.60;99.90
17341;DHT22;8788;49.930;8.660;2022-12-18T04:07:16;-5.60;99.90
17341;DHT22;8788;49.930;8.660;2022-12-18T04:09:45;-5.70;99.90
17341;DHT22;8788;49.930;8.660;2022-12-18T04:12:13;-5.70;99.90
17341;DHT22;8788;49.930;8.660;2022-12-18T04:14:40;-5.70;99.90
17341;DHT22;8788;49.930;8.660;2022-12-18T04:17:09;-5.80;99.90
17341;DHT22;8788;49.930;8.660;2022-12-18T04:19:36;-5.80;99.90
17341;DHT22;8788;49.930;8.660;2022-12-18T04:22:05;-5.70;99.90
17341;DHT22;8788;49.930;8.660;2022-12-18T04:24:39;-5.70;99.90
17341;DHT22;8788;49.930;8.660;2022-12-18T04:27:13;-5.60;99.90
17341;DHT22;8788;49.930;8.660;2022-12-18T04:29:47;-5.50;99.90
17341;DHT22;8788;49.930;8.660;2022-12-18T04:32:17;-5.50;99.90
17341;DHT22;8788;49.930;8.660;2022-12-18T04:34:46;-5.50;99.90
17341;DHT22;8788;49.930;8.660;2022-12-18T04:37:14;-5.50;99.90
17341;DHT22;8788;49.930;8.660;2022-12-18T04:39:42;-5.50;99.90
17341;DHT22;8788;49.930;8.660;2022-12-18T04:42:16;-5.50;99.90
17341;DHT22;8788;49.930;8.660;2022-12-18T04:44:43;-5.50;99.90
17341;DHT22;8788;49.930;8.660;2022-12-18T04:47:13;-5.50;99.90
17341;DHT22;8788;49.930;8.660;2022-12-18T04:49:40;-5.50;99.90
17341;DHT22;8788;49.930;8.660;2022-12-18T04:52:07;-5.40;99.90
17341;DHT22;8788;49.930;8.660;2022-12-18T04:54:36;-5.40;99.90
17341;DHT22;8788;49.930;8.660;2022-12-18T04:57:03;-5.40;99.90
17341;DHT22;8788;49.930;8.660;2022-12-18T04:59:30;-5.40;99.90
17341;DHT22;8788;49.930;8.660;2022-12-18T05:01:57;-5.50;99.90
17341;DHT22;8788;49.930;8.660;2022-12-18T05:04:24;-5.50;99.90
17341;DHT22;8788;49.930;8.660;2022-12-18T05:06:51;-5.50;99.90
17341;DHT22;8788;49.930;8.660;2022-12-18T05:09:18;-5.40;99.90
17341;DHT22;8788;49.930;8.660;2022-12-18T05:11:47;-5.50;99.90
17341;DHT22;8788;49.930;8.660;2022-12-18T05:14:14;-5.40;99.90
17341;DHT22;8788;49.930;8.660;2022-12-18T05:16:41;-5.40;99.90
17341;DHT22;8788;49.930;8.660;2022-12-18T05:19:09;-5.40;99.90
17341;DHT22;8788;49.930;8.660;2022-12-18T05:21:36;-5.30;99.90
17341;DHT22;8788;49.930;8.660;2022-12-18T05:24:04;-5.20;99.90
17341;DHT22;8788;49.930;8.660;2022-12-18T05:26:31;-5.20;99.90
17341;DHT22;8788;49.930;8.660;2022-12-18T05:28:59;-5.20;99.90
17341;DHT22;8788;49.930;8.660;2022-12-18T05:31:26;-5.20;99.90
17341;DHT22;8788;49.930;8.660;2022-12-18T05:33:53;-5.20;99.90
17341;DHT22;8788;49.930;8.660;2022-12-18T05:36:20;-5.20;99.90
17341;DHT22;8788;49.930;8.660;2022-12-18T05:38:48;-5.20;99.90
17341;DHT22;8788;49.930;8.660;2022-12-18T05:41:15;-5.20;99.90
17341;DHT22;8788;49.930;8.660;2022-12-18T05:43:42;-5.20;99.90
17341;DHT22;8788;49.930;8.660;2022-12-18T05:46:13;-5.10;99.90
17341;DHT22;8788;49.930;8.660;2022-12-18T05:48:40;-5.20;99.90
17341;DHT22;8788;49.930;8.660;2022-12-18T05:51:09;-5.20;99.90
17341;DHT22;8788;49.930;8.660;2022-12-18T05:53:37;-5.30;99.90
17341;DHT22;8788;49.930;8.660;2022-12-18T05:56:06;-5.30;99.90
17341;DHT22;8788;49.930;8.660;2022-12-18T05:58:34;-5.40;99.90
17341;DHT22;8788;49.930;8.660;2022-12-18T06:01:07;-5.30;99.90
17341;DHT22;8788;49.930;8.660;2022-12-18T06:03:36;-5.30;99.90
17341;DHT22;8788;49.930;8.660;2022-12-18T06:06:04;-5.30;99.90
17341;DHT22;8788;49.930;8.660;2022-12-18T06:08:31;-5.30;99.90
17341;DHT22;8788;49.930;8.660;2022-12-18T06:10:58;-5.30;99.90
17341;DHT22;8788;49.930;8.660;2022-12-18T06:13:25;-5.30;99.90
17341;DHT22;8788;49.930;8.660;2022-12-18T06:15:52;-5.30;99.90
17341;DHT22;8788;49.930;8.660;2022-12-18T06:18:19;-5.30;99.90
17341;DHT22;8788;49.930;8.660;2022-12-18T06:20:55;-5.20;99.90
17341;DHT22;8788;49.930;8.660;2022-12-18T06:23:22;-5.20;99.90
17341;DHT22;8788;49.930;8.660;2022-12-18T06:25:50;-5.20;99.90
17341;DHT22;8788;49.930;8.660;2022-12-18T06:28:17;-5.20;99.90
17341;DHT22;8788;49.930;8.660;2022-12-18T06:30:45;-5.20;99.90
17341;DHT22;8788;49.930;8.660;2022-12-18T06:33:12;-5.20;99.90
17341;DHT22;8788;49.930;8.660;2022-12-18T06:35:40;-5.10;99.90
17341;DHT22;8788;49.930;8.660;2022-12-18T06:38:08;-5.10;99.90
17341;DHT22;8788;49.930;8.660;2022-12-18T06:40:37;-5.00;99.90
17341;DHT22;8788;49.930;8.660;2022-12-18T06:43:05;-5.00;99.90
17341;DHT22;8788;49.930;8.660;2022-12-18T06:45:32;-5.00;99.90
17341;DHT22;8788;49.930;8.660;2022-12-18T06:47:59;-5.00;99.90
17341;DHT22;8788;49.930;8.660;2022-12-18T06:50:26;-4.90;99.90
17341;DHT22;8788;49.930;8.660;2022-12-18T06:52:54;-4.90;99.90
17341;DHT22;8788;49.930;8.660;2022-12-18T06:55:22;-4.90;99.90
17341;DHT22;8788;49.930;8.660;2022-12-18T06:57:49;-4.90;99.90
17341;DHT22;8788;49.930;8.660;2022-12-18T07:00:16;-4.90;99.90
17341;DHT22;8788;49.930;8.660;2022-12-18T07:02:44;-4.90;99.90
17341;DHT22;8788;49.930;8.660;2022-12-18T07:05:11;-4.80;99.90
17341;DHT22;8788;49.930;8.660;2022-12-18T07:07:38;-4.80;99.90
17341;DHT22;8788;49.930;8.660;2022-12-18T07:10:05;-4.80;99.90
17341;DHT22;8788;49.930;8.660;2022-12-18T07:12:34;-4.70;99.90
17341;DHT22;8788;49.930;8.660;2022-12-18T07:15:01;-4.70;99.90
17341;DHT22;8788;49.930;8.660;2022-12-18T07:17:28;-4.70;99.90
17341;DHT22;8788;49.930;8.660;2022-12-18T07:19:56;-4.70;99.90
17341;DHT22;8788;49.930;8.660;2022-12-18T07:22:23;-4.80;99.90
17341;DHT22;8788;49.930;8.660;2022-12-18T07:24:51;-4.70;99.90
17341;DHT22;8788;49.930;8.660;2022-12-18T07:27:18;-4.70;99.90
17341;DHT22;8788;49.930;8.660;2022-12-18T07:29:47;-4.70;99.90
17341;DHT22;8788;49.930;8.660;2022-12-18T07:32:14;-4.70;99.90
17341;DHT22;8788;49.930;8.660;2022-12-18T07:34:41;-4.90;99.90
17341;DHT22;8788;49.930;8.660;2022-12-18T07:37:08;-5.00;99.90
17341;DHT22;8788;49.930;8.660;2022-12-18T07:39:35;-5.00;99.90
17341;DHT22;8788;49.930;8.660;2022-12-18T07:42:03;-5.00;99.90
17341;DHT22;8788;49.930;8.660;2022-12-18T07:44:49;-5.00;99.90
17341;DHT22;8788;49.930;8.660;2022-12-18T07:47:16;-5.00;99.90
17341;DHT22;8788;49.930;8.660;2022-12-18T07:49:43;-5.00;99.90
17341;DHT22;8788;49.930;8.660;2022-12-18T07:52:10;-4.90;99.90
17341;DHT22;8788;49.930;8.660;2022-12-18T07:54:38;-4.90;99.90
17341;DHT22;8788;49.930;8.660;2022-12-18T07:57:05;-4.90;99.90
17341;DHT22;8788;49.930;8.660;2022-12-18T07:59:33;-4.90;99.90
17341;DHT22;8788;49.930;8.660;2022-12-18T08:02:01;-4.90;99.90
17341;DHT22;8788;49.930;8.660;2022-12-18T08:04:28;-4.80;99.90
17341;DHT22;8788;49.930;8.660;2022-12-18T08:06:55;-4.80;99.90
17341;DHT22;8788;49.930;8.660;2022-12-18T08:09:22;-4.80;99.90
17341;DHT22;8788;49.930;8.660;2022-12-18T08:11:49;-4.80;99.90
17341;DHT22;8788;49.930;8.660;2022-12-18T08:14:16;-4.80;99.90
17341;DHT22;8788;49.930;8.660;2022-12-18T08:16:43;-4.70;99.90
17341;DHT22;8788;49.930;8.660;2022-12-18T08:19:12;-4.70;99.90
17341;DHT22;8788;49.930;8.660;2022-12-18T08:21:39;-4.70;99.90
17341;DHT22;8788;49.930;8.660;2022-12-18T08:24:08;-4.80;99.90
17341;DHT22;8788;49.930;8.660;2022-12-18T08:26:35;-4.90;99.90
17341;DHT22;8788;49.930;8.660;2022-12-18T08:29:02;-5.10;99.90
17341;DHT22;8788;49.930;8.660;2022-12-18T08:31:30;-5.30;99.90
17341;DHT22;8788;49.930;8.660;2022-12-18T08:33:58;-5.40;99.90
17341;DHT22;8788;49.930;8.660;2022-12-18T08:36:27;-5.30;99.90
17341;DHT22;8788;49.930;8.660;2022-12-18T08:38:54;-5.20;99.90
17341;DHT22;8788;49.930;8.660;2022-12-18T08:41:21;-5.00;99.90
17341;DHT22;8788;49.930;8.660;2022-12-18T08:43:48;-5.00;99.90
17341;DHT22;8788;49.930;8.660;2022-12-18T08:46:35;-4.90;99.90
17341;DHT22;8788;49.930;8.660;2022-12-18T08:49:03;-4.80;99.90
17341;DHT22;8788;49.930;8.660;2022-12-18T08:51:32;-4.70;99.90
17341;DHT22;8788;49.930;8.660;2022-12-18T08:53:59;-4.60;99.90
17341;DHT22;8788;49.930;8.660;2022-12-18T08:56:26;-4.50;99.90
17341;DHT22;8788;49.930;8.660;2022-12-18T08:58:54;-4.40;99.90
17341;DHT22;8788;49.930;8.660;2022-12-18T09:01:21;-4.30;99.90
17341;DHT22;8788;49.930;8.660;2022-12-18T09:03:48;-4.30;99.90
17341;DHT22;8788;49.930;8.660;2022-12-18T09:06:16;-4.20;99.90
17341;DHT22;8788;49.930;8.660;2022-12-18T09:08:45;-4.10;99.90
17341;DHT22;8788;49.930;8.660;2022-12-18T09:11:14;-4.10;99.90
17341;DHT22;8788;49.930;8.660;2022-12-18T09:13:42;-4.10;99.90
17341;DHT22;8788;49.930;8.660;2022-12-18T09:16:09;-4.00;99.90
17341;DHT22;8788;49.930;8.660;2022-12-18T09:18:36;-3.90;99.90
17341;DHT22;8788;49.930;8.660;2022-12-18T09:21:08;-3.70;99.90
17341;DHT22;8788;49.930;8.660;2022-12-18T09:23:35;-3.60;99.90
17341;DHT22;8788;49.930;8.660;2022-12-18T09:26:04;-3.50;99.90
17341;DHT22;8788;49.930;8.660;2022-12-18T09:28:31;-3.50;99.90
17341;DHT22;8788;49.930;8.660;2022-12-18T09:30:58;-3.50;99.90
17341;DHT22;8788;49.930;8.660;2022-12-18T09:33:25;-3.50;99.90
17341;DHT22;8788;49.930;8.660;2022-12-18T09:35:52;-3.40;99.90
17341;DHT22;8788;49.930;8.660;2022-12-18T09:38:20;-3.40;99.90
17341;DHT22;8788;49.930;8.660;2022-12-18T09:40:51;-3.30;99.90
17341;DHT22;8788;49.930;8.660;2022-12-18T09:43:24;-3.10;99.90
17341;DHT22;8788;49.930;8.660;2022-12-18T09:46:03;-3.00;99.90
17341;DHT22;8788;49.930;8.660;2022-12-18T09:48:35;-2.80;99.90
17341;DHT22;8788;49.930;8.660;2022-12-18T09:51:12;-2.60;99.90
17341;DHT22;8788;49.930;8.660;2022-12-18T09:53:41;-2.40;99.90
17341;DHT22;8788;49.930;8.660;2022-12-18T09:56:14;-2.30;99.90
17341;DHT22;8788;49.930;8.660;2022-12-18T09:58:48;-2.20;99.90
17341;DHT22;8788;49.930;8.660;2022-12-18T10:01:20;-2.20;99.90
17341;DHT22;8788;49.930;8.660;2022-12-18T10:03:48;-2.10;99.90
17341;DHT22;8788;49.930;8.660;2022-12-18T10:06:20;-2.10;99.90
17341;DHT22;8788;49.930;8.660;2022-12-18T10:08:53;-2.10;99.90
17341;DHT22;8788;49.930;8.660;2022-12-18T10:11:34;-2.10;99.90
17341;DHT22;8788;49.930;8.660;2022-12-18T10:14:12;-2.20;99.90
17341;DHT22;8788;49.930;8.660;2022-12-18T10:16:51;-2.10;99.90
17341;DHT22;8788;49.930;8.660;2022-12-18T10:19:37;-2.10;99.90
17341;DHT22;8788;49.930;8.660;2022-12-18T10:22:15;-2.00;99.90
17341;DHT22;8788;49.930;8.660;2022-12-18T10:24:55;-1.80;99.90
17341;DHT22;8788;49.930;8.660;2022-12-18T10:27:27;-1.70;99.90
17341;DHT22;8788;49.930;8.660;2022-12-18T10:29:56;-1.70;99.90
17341;DHT22;8788;49.930;8.660;2022-12-18T10:32:25;-1.60;99.90
17341;DHT22;8788;49.930;8.660;2022-12-18T10:34:55;-1.60;99.90
17341;DHT22;8788;49.930;8.660;2022-12-18T10:37:24;-1.60;99.90
17341;DHT22;8788;49.930;8.660;2022-12-18T10:40:07;-1.60;99.90
17341;DHT22;8788;49.930;8.660;2022-12-18T10:42:35;-1.60;99.90
17341;DHT22;8788;49.930;8.660;2022-12-18T10:45:08;-1.70;99.90
17341;DHT22;8788;49.930;8.660;2022-12-18T10:47:36;-1.80;99.90
17341;DHT22;8788;49.930;8.660;2022-12-18T10:50:03;-1.80;99.90
17341;DHT22;8788;49.930;8.660;2022-12-18T10:52:31;-1.80;99.90
17341;DHT22;8788;49.930;8.660;2022-12-18T10:54:59;-1.70;99.90
17341;DHT22;8788;49.930;8.660;2022-12-18T10:57:34;-1.60;99.90
17341;DHT22;8788;49.930;8.660;2022-12-18T11:00:23;-1.50;99.90
17341;DHT22;8788;49.930;8.660;2022-12-18T11:02:51;-1.40;99.90
17341;DHT22;8788;49.930;8.660;2022-12-18T11:05:27;-1.40;99.90
17341;DHT22;8788;49.930;8.660;2022-12-18T11:07:55;-1.50;99.90
17341;DHT22;8788;49.930;8.660;2022-12-18T11:10:26;-1.50;99.90
17341;DHT22;8788;49.930;8.660;2022-12-18T11:12:55;-1.30;99.90
17341;DHT22;8788;49.930;8.660;2022-12-18T11:15:27;-1.20;99.90
17341;DHT22;8788;49.930;8.660;2022-12-18T11:17:56;-1.00;99.90
17341;DHT22;8788;49.930;8.660;2022-12-18T11:20:31;-0.90;99.90
17341;DHT22;8788;49.930;8.660;2022-12-18T11:23:00;-0.70;99.90
17341;DHT22;8788;49.930;8.660;2022-12-18T11:25:29;-0.70;99.90
17341;DHT22;8788;49.930;8.660;2022-12-18T11:27:59;-0.50;99.90
17341;DHT22;8788;49.930;8.660;2022-12-18T11:30:29;-0.10;99.90
17341;DHT22;8788;49.930;8.660;2022-12-18T11:33:00;0.40;99.90
17341;DHT22;8788;49.930;8.660;2022-12-18T11:35:37;2.20;99.90
17341;DHT22;8788;49.930;8.660;2022-12-18T11:38:17;4.20;99.90
17341;DHT22;8788;49.930;8.660;2022-12-18T11:40:52;5.20;99.90
17341;DHT22;8788;49.930;8.660;2022-12-18T11:43:26;5.70;99.40
17341;DHT22;8788;49.930;8.660;2022-12-18T11:46:01;6.10;97.80
17341;DHT22;8788;49.930;8.660;2022-12-18T11:48:33;6.40;96.70
17341;DHT22;8788;49.930;8.660;2022-12-18T11:51:03;6.70;96.00
17341;DHT22;8788;49.930;8.660;2022-12-18T11:53:31;7.20;95.30
17341;DHT22;8788;49.930;8.660;2022-12-18T11:56:04;7.60;94.40
17341;DHT22;8788;49.930;8.660;2022-12-18T11:58:44;7.70;94.00
17341;DHT22;8788;49.930;8.660;2022-12-18T12:01:22;7.70;93.50
17341;DHT22;8788;49.930;8.660;2022-12-18T12:04:11;7.70;93.40
17341;DHT22;8788;49.930;8.660;2022-12-18T12:06:48;7.30;92.70
17341;DHT22;8788;49.930;8.660;2022-12-18T12:09:23;6.70;93.20
17341;DHT22;8788;49.930;8.660;2022-12-18T12:12:02;6.30;94.00
17341;DHT22;8788;49.930;8.660;2022-12-18T12:14:42;5.70;94.70
17341;DHT22;8788;49.930;8.660;2022-12-18T12:17:22;5.00;95.40
17341;DHT22;8788;49.930;8.660;2022-12-18T12:19:55;4.40;96.00
17341;DHT22;8788;49.930;8.660;2022-12-18T12:22:30;4.00;97.20
17341;DHT22;8788;49.930;8.660;2022-12-18T12:25:11;3.50;97.70
17341;DHT22;8788;49.930;8.660;2022-12-18T12:27:47;3.10;98.50
17341;DHT22;8788;49.930;8.660;2022-12-18T12:30:19;2.90;99.30
17341;DHT22;8788;49.930;8.660;2022-12-18T12:33:01;2.50;99.90
17341;DHT22;8788;49.930;8.660;2022-12-18T12:35:36;2.00;99.90
17341;DHT22;8788;49.930;8.660;2022-12-18T12:38:08;1.70;99.90
17341;DHT22;8788;49.930;8.660;2022-12-18T12:40:39;1.40;99.90
17341;DHT22;8788;49.930;8.660;2022-12-18T12:43:20;1.20;99.90
17341;DHT22;8788;49.930;8.660;2022-12-18T12:45:51;1.00;99.90
17341;DHT22;8788;49.930;8.660;2022-12-18T12:48:31;0.80;99.90
17341;DHT22;8788;49.930;8.660;2022-12-18T12:51:03;0.50;99.90
17341;DHT22;8788;49.930;8.660;2022-12-18T12:53:34;0.40;99.90
17341;DHT22;8788;49.930;8.660;2022-12-18T12:56:03;0.30;99.90
17341;DHT22;8788;49.930;8.660;2022-12-18T12:58:35;0.20;99.90
17341;DHT22;8788;49.930;8.660;2022-12-18T13:01:17;0.00;99.90
17341;DHT22;8788;49.930;8.660;2022-12-18T13:03:54;-0.20;99.90
17341;DHT22;8788;49.930;8.660;2022-12-18T13:06:29;-0.20;99.90
17341;DHT22;8788;49.930;8.660;2022-12-18T13:09:00;-0.20;99.90
17341;DHT22;8788;49.930;8.660;2022-12-18T13:11:32;-0.30;99.90
17341;DHT22;8788;49.930;8.660;2022-12-18T13:14:23;-0.30;99.90
17341;DHT22;8788;49.930;8.660;2022-12-18T13:16:51;-0.30;99.90
17341;DHT22;8788;49.930;8.660;2022-12-18T13:19:25;-0.40;99.90
17341;DHT22;8788;49.930;8.660;2022-12-18T13:21:54;-0.40;99.90
17341;DHT22;8788;49.930;8.660;2022-12-18T13:24:25;-0.50;99.90
17341;DHT22;8788;49.930;8.660;2022-12-18T13:26:53;-0.60;99.90
17341;DHT22;8788;49.930;8.660;2022-12-18T13:29:42;-0.60;99.90
17341;DHT22;8788;49.930;8.660;2022-12-18T13:32:20;-0.60;99.90
17341;DHT22;8788;49.930;8.660;2022-12-18T13:37:55;-0.60;99.90
17341;DHT22;8788;49.930;8.660;2022-12-18T13:43:31;-0.60;99.90
17341;DHT22;8788;49.930;8.660;2022-12-18T13:48:50;-0.40;99.90
17341;DHT22;8788;49.930;8.660;2022-12-18T13:51:20;-0.40;99.90
17341;DHT22;8788;49.930;8.660;2022-12-18T13:53:50;-0.50;99.90
17341;DHT22;8788;49.930;8.660;2022-12-18T13:56:23;-0.60;99.90
17341;DHT22;8788;49.930;8.660;2022-12-18T13:59:11;-0.60;99.90
17341;DHT22;8788;49.930;8.660;2022-12-18T14:01:46;-0.60;99.90
17341;DHT22;8788;49.930;8.660;2022-12-18T14:04:20;-0.60;99.90
17341;DHT22;8788;49.930;8.660;2022-12-18T14:06:51;-0.70;99.90
17341;DHT22;8788;49.930;8.660;2022-12-18T14:09:23;-0.70;99.90
17341;DHT22;8788;49.930;8.660;2022-12-18T14:11:52;-0.70;99.90
17341;DHT22;8788;49.930;8.660;2022-12-18T14:14:42;-0.70;99.90
17341;DHT22;8788;49.930;8.660;2022-12-18T14:17:11;-0.70;99.90
17341;DHT22;8788;49.930;8.660;2022-12-18T14:19:42;-0.80;99.90
17341;DHT22;8788;49.930;8.660;2022-12-18T14:22:16;-0.80;99.90
17341;DHT22;8788;49.930;8.660;2022-12-18T14:24:44;-0.90;99.90
17341;DHT22;8788;49.930;8.660;2022-12-18T14:27:22;-0.90;99.90
17341;DHT22;8788;49.930;8.660;2022-12-18T14:29:50;-0.90;99.90
17341;DHT22;8788;49.930;8.660;2022-12-18T14:32:18;-0.90;99.90
17341;DHT22;8788;49.930;8.660;2022-12-18T14:34:47;-0.80;99.90
17341;DHT22;8788;49.930;8.660;2022-12-18T14:37:17;-0.80;99.90
17341;DHT22;8788;49.930;8.660;2022-12-18T14:39:57;-0.70;99.90
17341;DHT22;8788;49.930;8.660;2022-12-18T14:42:30;-0.70;99.90
17341;DHT22;8788;49.930;8.660;2022-12-18T14:45:32;-0.70;99.90
17341;DHT22;8788;49.930;8.660;2022-12-18T14:47:59;-0.70;99.90
17341;DHT22;8788;49.930;8.660;2022-12-18T14:50:27;-0.70;99.90
17341;DHT22;8788;49.930;8.660;2022-12-18T14:52:55;-0.70;99.90
17341;DHT22;8788;49.930;8.660;2022-12-18T14:55:22;-0.70;99.90
17341;DHT22;8788;49.930;8.660;2022-12-18T14:57:51;-0.80;99.90
17341;DHT22;8788;49.930;8.660;2022-12-18T15:00:20;-0.90;99.90
17341;DHT22;8788;49.930;8.660;2022-12-18T15:02:49;-0.90;99.90
17341;DHT22;8788;49.930;8.660;2022-12-18T15:05:19;-0.90;99.90
17341;DHT22;8788;49.930;8.660;2022-12-18T15:07:48;-0.90;99.90
17341;DHT22;8788;49.930;8.660;2022-12-18T15:10:19;-0.90;99.90
17341;DHT22;8788;49.930;8.660;2022-12-18T15:12:47;-0.90;99.90
17341;DHT22;8788;49.930;8.660;2022-12-18T15:15:49;-0.90;99.90
17341;DHT22;8788;49.930;8.660;2022-12-18T15:18:18;-0.90;99.90
17341;DHT22;8788;49.930;8.660;2022-12-18T15:20:49;-0.90;99.90
17341;DHT22;8788;49.930;8.660;2022-12-18T15:23:21;-0.90;99.90
17341;DHT22;8788;49.930;8.660;2022-12-18T15:25:56;-0.90;99.90
17341;DHT22;8788;49.930;8.660;2022-12-18T15:28:25;-0.90;99.90
17341;DHT22;8788;49.930;8.660;2022-12-18T15:31:24;-1.00;99.90
17341;DHT22;8788;49.930;8.660;2022-12-18T15:34:10;-1.00;99.90
17341;DHT22;8788;49.930;8.660;2022-12-18T15:36:38;-1.00;99.90
17341;DHT22;8788;49.930;8.660;2022-12-18T15:39:05;-1.00;99.90
17341;DHT22;8788;49.930;8.660;2022-12-18T15:41:35;-1.00;99.90
17341;DHT22;8788;49.930;8.660;2022-12-18T15:44:14;-1.00;99.90
17341;DHT22;8788;49.930;8.660;2022-12-18T15:46:46;-1.00;99.90
17341;DHT22;8788;49.930;8.660;2022-12-18T15:49:13;-0.90;99.90
17341;DHT22;8788;49.930;8.660;2022-12-18T15:51:40;-1.00;99.90
17341;DHT22;8788;49.930;8.660;2022-12-18T15:54:11;-1.00;99.90
17341;DHT22;8788;49.930;8.660;2022-12-18T15:56:42;-1.00;99.90
17341;DHT22;8788;49.930;8.660;2022-12-18T15:59:27;-1.00;99.90
17341;DHT22;8788;49.930;8.660;2022-12-18T16:01:54;-1.00;99.90
17341;DHT22;8788;49.930;8.660;2022-12-18T16:04:22;-1.00;99.90
17341;DHT22;8788;49.930;8.660;2022-12-18T16:06:50;-1.10;99.90
17341;DHT22;8788;49.930;8.660;2022-12-18T16:09:18;-1.10;99.90
17341;DHT22;8788;49.930;8.660;2022-12-18T16:11:46;-1.10;99.90
17341;DHT22;8788;49.930;8.660;2022-12-18T16:14:18;-1.10;99.90
17341;DHT22;8788;49.930;8.660;2022-12-18T16:16:45;-1.10;99.90
17341;DHT22;8788;49.930;8.660;2022-12-18T16:19:12;-1.10;99.90
17341;DHT22;8788;49.930;8.660;2022-12-18T16:21:39;-1.10;99.90
17341;DHT22;8788;49.930;8.660;2022-12-18T16:24:13;-1.10;99.90
17341;DHT22;8788;49.930;8.660;2022-12-18T16:26:40;-1.00;99.90
17341;DHT22;8788;49.930;8.660;2022-12-18T16:29:10;-1.00;99.90
17341;DHT22;8788;49.930;8.660;2022-12-18T16:31:38;-1.10;99.90
17341;DHT22;8788;49.930;8.660;2022-12-18T16:34:19;-1.10;99.90
17341;DHT22;8788;49.930;8.660;2022-12-18T16:36:47;-1.10;99.90
17341;DHT22;8788;49.930;8.660;2022-12-18T16:39:14;-1.10;99.90
17341;DHT22;8788;49.930;8.660;2022-12-18T16:41:44;-1.10;99.90
17341;DHT22;8788;49.930;8.660;2022-12-18T16:44:13;-1.10;99.90
17341;DHT22;8788;49.930;8.660;2022-12-18T16:46:41;-1.10;99.90
17341;DHT22;8788;49.930;8.660;2022-12-18T16:49:11;-1.10;99.90
17341;DHT22;8788;49.930;8.660;2022-12-18T16:51:38;-1.20;99.90
17341;DHT22;8788;49.930;8.660;2022-12-18T16:54:05;-1.20;99.90
17341;DHT22;8788;49.930;8.660;2022-12-18T16:56:33;-1.20;99.90
17341;DHT22;8788;49.930;8.660;2022-12-18T16:59:02;-1.10;99.90
17341;DHT22;8788;49.930;8.660;2022-12-18T17:01:31;-1.10;99.90
17341;DHT22;8788;49.930;8.660;2022-12-18T17:04:00;-1.10;99.90
17341;DHT22;8788;49.930;8.660;2022-12-18T17:06:29;-1.10;99.90
17341;DHT22;8788;49.930;8.660;2022-12-18T17:08:57;-1.10;99.90
17341;DHT22;8788;49.930;8.660;2022-12-18T17:11:26;-1.00;99.90
17341;DHT22;8788;49.930;8.660;2022-12-18T17:13:53;-1.00;99.90
17341;DHT22;8788;49.930;8.660;2022-12-18T17:16:21;-1.00;99.90
17341;DHT22;8788;49.930;8.660;2022-12-18T17:18:49;-0.90;99.90
17341;DHT22;8788;49.930;8.660;2022-12-18T17:21:18;-0.90;99.90
17341;DHT22;8788;49.930;8.660;2022-12-18T17:23:46;-0.90;99.90
17341;DHT22;8788;49.930;8.660;2022-12-18T17:26:13;-0.90;99.90
17341;DHT22;8788;49.930;8.660;2022-12-18T17:28:40;-0.90;99.90
17341;DHT22;8788;49.930;8.660;2022-12-18T17:31:12;-0.90;99.90
17341;DHT22;8788;49.930;8.660;2022-12-18T17:33:39;-0.90;99.90
17341;DHT22;8788;49.930;8.660;2022-12-18T17:36:09;-0.90;99.90
17341;DHT22;8788;49.930;8.660;2022-12-18T17:38:36;-0.80;99.90
17341;DHT22;8788;49.930;8.660;2022-12-18T17:41:05;-0.80;99.90
17341;DHT22;8788;49.930;8.660;2022-12-18T17:43:33;-0.80;99.90
17341;DHT22;8788;49.930;8.660;2022-12-18T17:46:01;-0.80;99.90
17341;DHT22;8788;49.930;8.660;2022-12-18T17:48:28;-0.70;99.90
17341;DHT22;8788;49.930;8.660;2022-12-18T17:51:00;-0.70;99.90
17341;DHT22;8788;49.930;8.660;2022-12-18T17:53:29;-0.80;99.90
17341;DHT22;8788;49.930;8.660;2022-12-18T17:55:58;-0.70;99.90
17341;DHT22;8788;49.930;8.660;2022-12-18T17:58:26;-0.80;99.90
17341;DHT22;8788;49.930;8.660;2022-12-18T18:00:53;-0.80;99.90
17341;DHT22;8788;49.930;8.660;2022-12-18T18:03:20;-0.80;99.90
17341;DHT22;8788;49.930;8.660;2022-12-18T18:05:47;-0.70;99.90
17341;DHT22;8788;49.930;8.660;2022-12-18T18:08:14;-0.70;99.90
17341;DHT22;8788;49.930;8.660;2022-12-18T18:10:43;-0.70;99.90
17341;DHT22;8788;49.930;8.660;2022-12-18T18:13:18;-0.70;99.90
17341;DHT22;8788;49.930;8.660;2022-12-18T18:16:05;-0.70;99.90
17341;DHT22;8788;49.930;8.660;2022-12-18T18:18:32;-0.70;99.90
17341;DHT22;8788;49.930;8.660;2022-12-18T18:21:03;-0.70;99.90
17341;DHT22;8788;49.930;8.660;2022-12-18T18:23:31;-0.70;99.90
17341;DHT22;8788;49.930;8.660;2022-12-18T18:26:03;-0.70;99.90
17341;DHT22;8788;49.930;8.660;2022-12-18T18:28:30;-0.70;99.90
17341;DHT22;8788;49.930;8.660;2022-12-18T18:30:57;-0.70;99.90
17341;DHT22;8788;49.930;8.660;2022-12-18T18:33:24;-0.60;99.90
17341;DHT22;8788;49.930;8.660;2022-12-18T18:35:51;-0.60;99.90
17341;DHT22;8788;49.930;8.660;2022-12-18T18:38:18;-0.60;99.90
17341;DHT22;8788;49.930;8.660;2022-12-18T18:40:45;-0.60;99.90
17341;DHT22;8788;49.930;8.660;2022-12-18T18:43:14;-0.50;99.90
17341;DHT22;8788;49.930;8.660;2022-12-18T18:45:41;-0.50;99.90
17341;DHT22;8788;49.930;8.660;2022-12-18T18:48:08;-0.50;99.90
17341;DHT22;8788;49.930;8.660;2022-12-18T18:50:35;-0.50;99.90
17341;DHT22;8788;49.930;8.660;2022-12-18T18:53:02;-0.50;99.90
17341;DHT22;8788;49.930;8.660;2022-12-18T18:55:32;-0.50;99.90
17341;DHT22;8788;49.930;8.660;2022-12-18T18:57:59;-0.40;99.90
17341;DHT22;8788;49.930;8.660;2022-12-18T19:00:27;-0.40;99.90
17341;DHT22;8788;49.930;8.660;2022-12-18T19:02:54;-0.40;99.90
17341;DHT22;8788;49.930;8.660;2022-12-18T19:05:21;-0.40;99.90
17341;DHT22;8788;49.930;8.660;2022-12-18T19:07:48;-0.40;99.90
17341;DHT22;8788;49.930;8.660;2022-12-18T19:10:16;-0.40;99.90
17341;DHT22;8788;49.930;8.660;2022-12-18T19:12:43;-0.40;99.90
17341;DHT22;8788;49.930;8.660;2022-12-18T19:15:29;-0.40;99.90
17341;DHT22;8788;49.930;8.660;2022-12-18T19:17:56;-0.40;99.90
17341;DHT22;8788;49.930;8.660;2022-12-18T19:20:23;-0.30;99.90
17341;DHT22;8788;49.930;8.660;2022-12-18T19:22:50;-0.30;99.90
17341;DHT22;8788;49.930;8.660;2022-12-18T19:25:17;-0.30;99.90
17341;DHT22;8788;49.930;8.660;2022-12-18T19:27:44;-0.30;99.90
17341;DHT22;8788;49.930;8.660;2022-12-18T19:30:12;-0.40;99.90
17341;DHT22;8788;49.930;8.660;2022-12-18T19:32:40;-0.40;99.90
17341;DHT22;8788;49.930;8.660;2022-12-18T19:35:08;-0.40;99.90
17341;DHT22;8788;49.930;8.660;2022-12-18T19:37:35;-0.40;99.90
17341;DHT22;8788;49.930;8.660;2022-12-18T19:40:03;-0.40;99.90
17341;DHT22;8788;49.930;8.660;2022-12-18T19:42:30;-0.40;99.90
17341;DHT22;8788;49.930;8.660;2022-12-18T19:44:57;-0.40;99.90
17341;DHT22;8788;49.930;8.660;2022-12-18T19:47:24;-0.30;99.90
17341;DHT22;8788;49.930;8.660;2022-12-18T19:49:53;-0.40;99.90
17341;DHT22;8788;49.930;8.660;2022-12-18T19:52:20;-0.30;99.90
17341;DHT22;8788;49.930;8.660;2022-12-18T19:54:47;-0.30;99.90
17341;DHT22;8788;49.930;8.660;2022-12-18T19:57:14;-0.30;99.90
17341;DHT22;8788;49.930;8.660;2022-12-18T19:59:42;-0.30;99.90
17341;DHT22;8788;49.930;8.660;2022-12-18T20:02:11;-0.30;99.90
17341;DHT22;8788;49.930;8.660;2022-12-18T20:04:39;-0.30;99.90
17341;DHT22;8788;49.930;8.660;2022-12-18T20:07:07;-0.30;99.90
17341;DHT22;8788;49.930;8.660;2022-12-18T20:09:34;-0.20;99.90
17341;DHT22;8788;49.930;8.660;2022-12-18T20:12:02;-0.20;99.90
17341;DHT22;8788;49.930;8.660;2022-12-18T20:14:29;-0.20;99.90
17341;DHT22;8788;49.930;8.660;2022-12-18T20:16:56;-0.20;99.90
17341;DHT22;8788;49.930;8.660;2022-12-18T20:19:23;-0.20;99.90